createdAt,value
2023-02-05T00:00:53.333Z,52.30
2023-02-05T00:05:06.910Z,52.90
2023-02-05T00:09:11.686Z,52.10
2023-02-05T00:13:15.465Z,52.10
2023-02-05T00:17:19.398Z,52.00
2023-02-05T00:25:47.560Z,52.30
2023-02-05T00:29:57.370Z,51.90
2023-02-05T00:34:02.567Z,51.90
2023-02-05T00:38:05.789Z,51.80
2023-02-05T00:42:11.536Z,52.20
2023-02-05T00:46:17.778Z,52.50
2023-02-05T00:50:22.228Z,52.30
2023-02-05T00:54:27.595Z,52.40
2023-02-05T00:58:36.468Z,52.60
2023-02-05T01:02:41.423Z,52.60
2023-02-05T01:06:52.936Z,52.90
2023-02-05T01:10:57.044Z,53.10
2023-02-05T01:15:05.565Z,53.40
2023-02-05T01:19:11.980Z,53.40
2023-02-05T01:23:19.587Z,53.20
2023-02-05T01:27:24.404Z,53.00
2023-02-05T01:31:29.798Z,53.00
2023-02-05T01:35:34.826Z,52.80
2023-02-05T01:39:38.499Z,52.90
2023-02-05T01:43:43.655Z,52.80
2023-02-05T01:48:05.365Z,53.00
2023-02-05T01:52:18.801Z,53.10
2023-02-05T02:01:17.952Z,53.40
2023-02-05T02:05:21.549Z,53.50
2023-02-05T02:09:24.804Z,53.30
2023-02-05T02:13:30.159Z,53.30
2023-02-05T02:17:39.369Z,53.00
2023-02-05T02:22:11.502Z,53.00
2023-02-05T02:26:45.522Z,52.80
2023-02-05T02:31:08.575Z,52.90
2023-02-05T02:35:41.057Z,52.60
2023-02-05T02:39:55.460Z,52.90
2023-02-05T02:44:00.815Z,53.00
2023-02-05T02:48:06.525Z,52.90
2023-02-05T02:52:13.418Z,52.70
2023-02-05T02:56:25.837Z,53.10
2023-02-05T03:00:34.472Z,52.90
2023-02-05T03:04:42.938Z,52.60
2023-02-05T03:09:16.627Z,52.60
2023-02-05T03:17:47.581Z,52.50
2023-02-05T03:22:00.669Z,52.40
2023-02-05T03:26:04.160Z,52.20
2023-02-05T03:30:21.655Z,52.30
2023-02-05T03:35:05.802Z,52.20
2023-02-05T03:39:56.601Z,52.30
2023-02-05T03:44:16.362Z,52.00
2023-02-05T03:48:41.006Z,51.90
2023-02-05T03:52:55.084Z,52.00
2023-02-05T03:57:14.632Z,52.20
2023-02-05T04:01:23.805Z,52.20
2023-02-05T04:05:28.524Z,52.40
2023-02-05T04:09:33.519Z,52.60
2023-02-05T04:13:36.485Z,52.70
2023-02-05T04:17:41.287Z,52.90
2023-02-05T04:21:50.899Z,52.90
2023-02-05T04:26:01.071Z,52.90
2023-02-05T04:30:12.835Z,53.00
2023-02-05T04:34:37.676Z,52.90
2023-02-05T04:38:47.667Z,53.00
2023-02-05T04:42:55.117Z,53.20
2023-02-05T04:47:05.385Z,53.40
2023-02-05T04:51:20.504Z,53.50
2023-02-05T04:55:29.348Z,53.60
2023-02-05T04:59:39.386Z,53.70
2023-02-05T05:03:56.290Z,53.70
2023-02-05T05:08:07.321Z,53.90
2023-02-05T05:12:24.119Z,54.20
2023-02-05T05:16:29.483Z,54.30
2023-02-05T05:20:32.922Z,54.40
2023-02-05T05:24:37.173Z,54.60
2023-02-05T05:28:40.603Z,54.80
2023-02-05T05:32:43.290Z,55.00
2023-02-05T05:36:50.793Z,55.40
2023-02-05T05:41:19.086Z,55.90
2023-02-05T05:45:25.743Z,56.20
2023-02-05T05:49:29.312Z,56.40
2023-02-05T05:53:32.836Z,57.20
2023-02-05T05:57:46.381Z,57.40
2023-02-05T06:01:50.512Z,57.80
2023-02-05T06:06:02.089Z,57.80
2023-02-05T06:10:06.953Z,57.80
2023-02-05T06:14:09.646Z,58.00
2023-02-05T06:18:12.278Z,58.00
2023-02-05T06:22:14.973Z,58.30
2023-02-05T06:26:18.055Z,58.60
2023-02-05T06:30:20.850Z,58.60
2023-02-05T06:34:23.730Z,58.40
2023-02-05T06:38:26.604Z,58.20
2023-02-05T06:42:29.278Z,58.10
2023-02-05T06:46:33.542Z,58.40
2023-02-05T06:50:38.877Z,58.40
2023-02-05T06:54:43.542Z,58.60
2023-02-05T06:58:46.234Z,59.10
2023-02-05T07:02:48.983Z,58.90
2023-02-05T07:06:54.838Z,58.60
2023-02-05T07:11:08.317Z,58.30
2023-02-05T07:15:12.698Z,58.10
2023-02-05T07:19:15.361Z,57.80
2023-02-05T07:23:19.289Z,57.70
2023-02-05T07:27:23.083Z,57.50
2023-02-05T07:31:26.278Z,57.30
2023-02-05T07:35:30.271Z,57.50
2023-02-05T07:39:33.787Z,57.30
2023-02-05T07:43:37.506Z,57.00
2023-02-05T07:47:40.348Z,56.30
2023-02-05T07:51:43.393Z,55.60
2023-02-05T07:55:47.913Z,55.30
2023-02-05T07:59:53.556Z,54.90
2023-02-05T08:03:56.565Z,54.60
2023-02-05T08:08:00.814Z,54.10
2023-02-05T08:12:04.189Z,53.70
2023-02-05T08:16:07.614Z,53.10
2023-02-05T08:20:11.081Z,53.20
2023-02-05T08:24:13.802Z,52.60
2023-02-05T08:28:16.961Z,52.30
2023-02-05T08:32:20.051Z,51.70
2023-02-05T08:36:27.105Z,51.60
2023-02-05T08:40:31.447Z,50.60
2023-02-05T08:44:37.826Z,50.30
2023-02-05T08:48:42.182Z,50.40
2023-02-05T08:52:46.368Z,50.10
2023-02-05T08:56:51.309Z,49.80
2023-02-05T09:01:01.596Z,49.60
2023-02-05T09:05:09.311Z,48.80
2023-02-05T09:09:14.785Z,49.10
2023-02-05T09:13:19.823Z,49.00
2023-02-05T09:17:24.509Z,48.30
2023-02-05T09:21:27.733Z,48.70
2023-02-05T09:25:34.268Z,47.00
2023-02-05T09:29:37.564Z,46.90
2023-02-05T09:33:40.385Z,46.20
2023-02-05T09:37:44.474Z,46.10
2023-02-05T09:41:54.923Z,45.60
2023-02-05T09:46:18.552Z,45.70
2023-02-05T09:50:31.968Z,46.00
2023-02-05T09:54:41.454Z,46.20
2023-02-05T09:58:49.638Z,45.80
2023-02-05T10:03:17.669Z,45.20
2023-02-05T10:07:31.923Z,45.00
2023-02-05T10:11:44.567Z,45.10
2023-02-05T10:16:38.424Z,44.70
2023-02-05T10:21:31.056Z,45.10
2023-02-05T10:25:45.722Z,45.30
2023-02-05T10:30:00.944Z,44.60
2023-02-05T10:34:36.647Z,44.70
2023-02-05T10:38:44.858Z,44.50
2023-02-05T10:43:06.220Z,43.90
2023-02-05T10:47:43.920Z,43.70
2023-02-05T11:08:59.033Z,42.70
2023-02-05T11:13:18.942Z,42.80
2023-02-05T11:17:39.809Z,42.60
2023-02-05T11:21:58.098Z,42.30
2023-02-05T11:26:07.818Z,42.30
2023-02-05T11:41:48.719Z,42.40
2023-02-05T11:45:55.525Z,42.30
2023-02-05T11:50:05.128Z,42.00
2023-02-05T11:59:56.179Z,41.90
2023-02-05T12:04:27.302Z,41.50
2023-02-05T12:14:27.163Z,41.00
2023-02-05T12:18:40.265Z,41.20
2023-02-05T12:23:17.535Z,41.20
2023-02-05T12:28:01.916Z,41.40
2023-02-05T12:38:27.258Z,40.00
2023-02-05T12:43:01.218Z,40.50
2023-02-05T12:47:46.887Z,40.00
2023-02-05T12:52:07.982Z,40.50
2023-02-05T12:57:00.718Z,40.70
2023-02-05T13:07:28.369Z,41.30
2023-02-05T13:12:08.570Z,41.00
2023-02-05T13:16:52.682Z,41.20
2023-02-05T13:21:19.535Z,41.00
2023-02-05T13:26:04.907Z,40.90
2023-02-05T13:35:43.998Z,41.40
2023-02-05T14:09:35.229Z,41.80
2023-02-05T14:24:38.981Z,41.80
2023-02-05T14:58:45.526Z,42.60
2023-02-05T15:13:36.166Z,43.30
2023-02-05T15:29:58.432Z,44.20
2023-02-05T16:16:17.647Z,46.20
2023-02-05T16:20:33.378Z,46.30
2023-02-05T16:24:43.505Z,46.60
2023-02-05T16:28:59.484Z,46.70
2023-02-05T16:33:05.737Z,47.10
2023-02-05T16:37:17.059Z,47.20
2023-02-05T16:41:45.125Z,47.40
2023-02-05T16:46:14.941Z,47.70
2023-02-05T16:50:43.142Z,47.90
2023-02-05T16:54:46.558Z,48.10
2023-02-05T16:58:58.811Z,48.20
2023-02-05T17:03:16.056Z,48.40
2023-02-05T17:07:20.794Z,48.60
2023-02-05T17:11:45.069Z,48.80
2023-02-05T17:15:55.434Z,48.80
2023-02-05T17:20:25.196Z,49.00
2023-02-05T17:24:47.341Z,49.20
2023-02-05T17:28:56.449Z,49.40
2023-02-05T17:32:59.195Z,49.60
2023-02-05T17:37:05.064Z,49.60
2023-02-05T17:41:33.887Z,49.70
2023-02-05T17:45:39.781Z,49.90
2023-02-05T17:49:44.548Z,50.00
2023-02-05T17:53:49.501Z,50.30
2023-02-05T17:57:52.760Z,50.30
2023-02-05T18:01:55.723Z,50.40
2023-02-05T18:05:59.239Z,50.60
2023-02-05T18:10:03.149Z,50.70
2023-02-05T18:14:08.503Z,50.90
2023-02-05T18:18:11.196Z,50.90
2023-02-05T18:22:14.273Z,50.90
2023-02-05T18:26:17.436Z,51.10
2023-02-05T18:30:24.415Z,51.10
2023-02-05T18:34:27.329Z,51.10
2023-02-05T18:38:32.078Z,51.10
2023-02-05T18:42:36.823Z,51.20
2023-02-05T18:46:39.769Z,51.20
2023-02-05T18:50:42.616Z,51.10
2023-02-05T18:54:46.180Z,51.10
2023-02-05T18:59:09.596Z,51.10
2023-02-05T19:03:14.633Z,51.20
2023-02-05T19:07:17.500Z,51.20
2023-02-05T19:11:25.517Z,51.20
2023-02-05T19:15:28.376Z,51.30
2023-02-05T19:19:31.293Z,51.30
2023-02-05T19:23:34.419Z,51.50
2023-02-05T19:27:37.199Z,51.40
2023-02-05T19:31:40.608Z,51.50
2023-02-05T19:35:43.368Z,51.60
2023-02-05T19:39:47.719Z,51.70
2023-02-05T19:43:59.459Z,51.90
2023-02-05T19:48:02.303Z,52.10
2023-02-05T19:52:06.685Z,52.10
2023-02-05T19:56:13.268Z,52.40
2023-02-05T20:00:16.346Z,52.70
2023-02-05T20:04:22.614Z,52.90
2023-02-05T20:08:26.816Z,53.30
2023-02-05T20:12:30.053Z,53.40
2023-02-05T20:16:34.010Z,53.90
2023-02-05T20:20:41.025Z,54.20
2023-02-05T20:24:45.056Z,54.20
2023-02-05T20:29:11.275Z,54.40
2023-02-05T20:33:14.353Z,54.70
2023-02-05T20:37:19.815Z,54.50
2023-02-05T20:41:23.038Z,54.70
2023-02-05T20:45:25.857Z,54.90
2023-02-05T20:49:29.061Z,55.00
2023-02-05T20:53:31.835Z,55.10
2023-02-05T20:57:34.964Z,55.20
2023-02-05T21:01:39.646Z,55.20
2023-02-05T21:05:42.492Z,55.30
2023-02-05T21:09:46.225Z,55.50
2023-02-05T21:13:49.942Z,55.60
2023-02-05T21:17:52.741Z,55.80
2023-02-05T21:21:55.593Z,55.80
2023-02-05T21:25:58.442Z,56.00
2023-02-05T21:30:01.207Z,56.30
2023-02-05T21:34:06.719Z,56.40
2023-02-05T21:38:09.566Z,57.30
2023-02-05T21:42:12.634Z,57.00
2023-02-05T21:46:15.564Z,56.90
2023-02-05T21:50:18.555Z,56.90
2023-02-05T21:54:25.604Z,56.80
2023-02-05T21:58:32.320Z,56.90
2023-02-05T22:02:35.103Z,56.50
2023-02-05T22:06:38.449Z,56.30
2023-02-05T22:10:41.134Z,56.20
2023-02-05T22:14:44.195Z,56.10
2023-02-05T22:18:47.781Z,55.90
2023-02-05T22:22:50.586Z,55.70
2023-02-05T22:26:53.590Z,55.50
2023-02-05T22:31:03.077Z,55.40
2023-02-05T22:35:06.186Z,55.20
2023-02-05T22:39:09.038Z,55.20
2023-02-05T22:43:11.742Z,55.20
2023-02-05T22:47:14.438Z,55.20
2023-02-05T22:51:23.248Z,55.10
2023-02-05T22:55:26.015Z,55.10
2023-02-05T22:59:29.483Z,55.10
2023-02-05T23:03:32.391Z,54.90
2023-02-05T23:07:38.338Z,54.70
2023-02-05T23:11:41.923Z,54.60
2023-02-05T23:15:44.653Z,54.40
2023-02-05T23:19:51.676Z,54.30
2023-02-05T23:23:54.861Z,54.20
2023-02-05T23:27:57.786Z,54.20
2023-02-05T23:32:00.618Z,54.20
2023-02-05T23:36:06.109Z,54.10
2023-02-05T23:40:09.290Z,53.90
2023-02-05T23:44:17.750Z,53.40
2023-02-05T23:48:21.471Z,52.90
2023-02-05T23:52:24.203Z,52.80
2023-02-05T23:56:27.224Z,52.90
